Time;durP1;ratioP1;P1;durP2;ratioP2;P2;SDS_P1;SDS_P2;PMS_P1;PMS_P2;Temp;Humidity;BMP_temperature;BMP_pressure;BME280_temperature;BME280_humidity;BME280_pressure;Samples;Min_cycle;Max_cycle;Signal;HPM_P1;HPM_P2
2023/08/29 00:00:58;;;;;;;3.97;2.20;;;14.30;96.20;;;;;;5030509;28;20087;-71
2023/08/29 00:03:27;;;;;;;5.57;2.20;;;14.30;96.30;;;;;;5031158;28;20037;-68
2023/08/29 00:06:02;;;;;;;4.50;2.42;;;14.30;96.40;;;;;;5018736;28;20123;-69
2023/08/29 00:08:28;;;;;;;3.78;2.00;;;14.30;96.40;;;;;;5030887;28;20049;-71
2023/08/29 00:10:58;;;;;;;5.25;2.15;;;14.30;96.40;;;;;;5029963;28;20080;-68
2023/08/29 00:13:25;;;;;;;3.95;2.15;;;14.30;96.40;;;;;;5024025;28;20045;-69
2023/08/29 00:15:52;;;;;;;3.08;2.22;;;14.70;96.50;;;;;;5016072;28;20064;-68
2023/08/29 00:18:21;;;;;;;2.85;2.30;;;14.30;96.50;;;;;;5026395;28;20048;-68
2023/08/29 00:20:48;;;;;;;5.00;2.10;;;14.20;96.50;;;;;;5028193;28;20059;-71
2023/08/29 00:23:14;;;;;;;5.00;2.75;;;14.20;96.50;;;;;;5032717;28;20044;-68
2023/08/29 00:25:40;;;;;;;3.55;2.30;;;14.20;96.50;;;;;;5032389;28;20493;-68
2023/08/29 00:28:07;;;;;;;4.53;2.38;;;14.20;96.60;;;;;;5032552;28;20398;-68
2023/08/29 00:30:37;;;;;;;4.28;2.35;;;14.10;96.60;;;;;;5032742;28;20380;-69
2023/08/29 00:33:04;;;;;;;4.53;2.60;;;14.10;96.60;;;;;;5049074;28;20965;-69
2023/08/29 00:35:31;;;;;;;4.88;2.50;;;14.10;96.70;;;;;;5015681;28;20048;-69
2023/08/29 00:38:03;;;;;;;5.72;2.45;;;14.10;96.70;;;;;;5037823;28;20271;-71
2023/08/29 00:40:32;;;;;;;5.68;2.80;;;14.00;96.80;;;;;;5011781;28;20415;-69
2023/08/29 00:42:59;;;;;;;4.30;2.80;;;14.00;96.90;;;;;;5034972;28;20102;-70
2023/08/29 00:45:30;;;;;;;6.50;3.30;;;14.00;97.00;;;;;;5033269;28;20045;-68
2023/08/29 00:47:56;;;;;;;3.90;2.90;;;13.90;97.10;;;;;;5037963;28;20387;-68
2023/08/29 00:50:22;;;;;;;6.40;3.10;;;13.90;97.20;;;;;;5015436;28;20444;-68
2023/08/29 00:52:49;;;;;;;4.75;3.03;;;14.00;97.30;;;;;;5050380;28;20072;-70
2023/08/29 00:55:16;;;;;;;5.28;3.00;;;13.80;97.30;;;;;;5036176;28;20075;-68
2023/08/29 00:57:43;;;;;;;5.80;2.92;;;13.80;97.30;;;;;;5033711;28;20522;-67
2023/08/29 01:00:11;;;;;;;3.90;2.80;;;13.80;97.40;;;;;;5039156;28;20475;-69
2023/08/29 01:02:37;;;;;;;3.92;2.83;;;13.80;97.40;;;;;;5014524;28;20229;-70
2023/08/29 01:05:03;;;;;;;3.90;3.00;;;13.70;97.40;;;;;;5015483;28;20075;-68
2023/08/29 01:07:29;;;;;;;4.05;2.58;;;13.70;97.50;;;;;;5038216;28;20110;-67
2023/08/29 01:09:55;;;;;;;4.43;3.05;;;13.70;97.50;;;;;;5053777;28;20113;-68
2023/08/29 01:12:29;;;;;;;7.22;3.20;;;13.70;97.50;;;;;;5029855;28;20052;-69
2023/08/29 01:15:03;;;;;;;3.90;2.60;;;13.70;97.60;;;;;;5037816;28;20056;-68
2023/08/29 01:17:44;;;;;;;4.07;2.92;;;13.70;97.70;;;;;;5037186;28;20048;-67
2023/08/29 01:20:12;;;;;;;5.10;2.80;;;13.70;97.80;;;;;;5032876;28;20052;-69
2023/08/29 01:22:43;;;;;;;5.05;2.65;;;13.60;97.70;;;;;;5033891;28;20048;-67
2023/08/29 01:25:17;;;;;;;5.20;2.95;;;13.60;97.80;;;;;;5018525;28;20056;-71
2023/08/29 01:27:45;;;;;;;6.57;3.00;;;13.60;97.90;;;;;;5038441;28;20079;-72
2023/08/29 01:30:12;;;;;;;3.55;2.70;;;13.60;97.90;;;;;;5035851;28;20159;-73
2023/08/29 01:32:39;;;;;;;3.13;2.42;;;13.60;98.00;;;;;;5038161;28;20040;-70
2023/08/29 01:35:06;;;;;;;4.75;2.92;;;13.50;98.00;;;;;;5019803;28;20053;-69
2023/08/29 01:37:32;;;;;;;4.35;2.80;;;13.50;98.10;;;;;;5033805;28;20391;-69
2023/08/29 01:39:58;;;;;;;4.10;2.67;;;13.50;98.20;;;;;;5034000;28;20055;-70
2023/08/29 01:42:24;;;;;;;3.80;2.47;;;13.50;98.30;;;;;;5019508;28;20244;-72
2023/08/29 01:44:50;;;;;;;3.45;2.60;;;13.50;98.30;;;;;;5053725;28;20044;-69
2023/08/29 01:47:15;;;;;;;4.40;2.60;;;13.50;98.40;;;;;;5033898;28;20241;-70
2023/08/29 01:49:42;;;;;;;4.40;2.33;;;13.50;98.50;;;;;;5053492;28;20509;-70
2023/08/29 01:52:08;;;;;;;5.03;2.78;;;13.50;98.50;;;;;;5035554;28;20044;-70
2023/08/29 01:54:34;;;;;;;3.45;2.25;;;13.40;98.50;;;;;;5034683;28;20743;-68
2023/08/29 01:57:02;;;;;;;5.70;2.33;;;13.40;98.50;;;;;;5033552;28;20052;-69
2023/08/29 01:59:29;;;;;;;3.90;2.20;;;13.40;98.60;;;;;;5015615;28;20387;-69
2023/08/29 02:01:56;;;;;;;2.90;2.40;;;13.40;98.60;;;;;;5034777;28;20190;-69
2023/08/29 02:04:22;;;;;;;3.65;2.65;;;13.30;98.60;;;;;;5034196;28;20087;-69
2023/08/29 02:06:49;;;;;;;3.10;2.30;;;13.30;98.60;;;;;;5014841;28;20597;-70
2023/08/29 02:09:16;;;;;;;4.07;2.10;;;13.30;98.60;;;;;;5034149;28;20578;-72
2023/08/29 02:11:41;;;;;;;5.00;2.65;;;13.30;98.60;;;;;;5001318;28;20055;-70
2023/08/29 02:14:09;;;;;;;3.50;2.28;;;13.30;98.70;;;;;;5050216;28;20037;-69
2023/08/29 02:16:35;;;;;;;3.30;2.30;;;13.20;98.70;;;;;;5013242;28;20063;-70
2023/08/29 02:19:02;;;;;;;5.43;2.00;;;13.30;98.80;;;;;;5033738;28;20040;-69
2023/08/29 02:21:28;;;;;;;3.75;2.17;;;13.20;98.70;;;;;;5015876;28;20037;-70
2023/08/29 02:23:54;;;;;;;2.92;2.08;;;13.20;98.80;;;;;;5029388;28;20064;-72
2023/08/29 02:26:20;;;;;;;3.25;2.05;;;13.20;98.80;;;;;;5014271;28;20114;-70
2023/08/29 02:28:45;;;;;;;3.47;1.90;;;13.20;98.80;;;;;;4995474;28;20091;-68
2023/08/29 02:31:13;;;;;;;2.58;1.90;;;13.10;98.80;;;;;;5034411;28;20369;-68
2023/08/29 02:33:38;;;;;;;3.58;1.98;;;13.10;98.90;;;;;;5032656;28;20059;-68
2023/08/29 02:36:05;;;;;;;3.65;2.25;;;13.10;98.80;;;;;;5017859;28;20123;-67
2023/08/29 02:38:31;;;;;;;3.95;2.25;;;13.10;98.80;;;;;;5030712;28;20045;-70
2023/08/29 02:40:57;;;;;;;4.22;2.10;;;13.00;98.80;;;;;;5034061;28;20064;-68
2023/08/29 02:43:23;;;;;;;4.50;2.20;;;13.00;98.80;;;;;;5016572;28;20083;-70
2023/08/29 02:45:51;;;;;;;2.97;2.08;;;13.00;98.70;;;;;;5032272;28;20673;-71
2023/08/29 02:48:17;;;;;;;4.90;2.10;;;13.00;98.80;;;;;;5047357;28;20054;-70
2023/08/29 02:50:45;;;;;;;3.85;2.00;;;12.90;98.70;;;;;;5033058;28;20048;-67
2023/08/29 02:53:19;;;;;;;3.65;2.30;;;12.90;98.80;;;;;;5032772;28;20051;-68
2023/08/29 02:55:45;;;;;;;4.20;2.78;;;12.90;99.00;;;;;;5032138;28;20097;-68
2023/08/29 02:58:11;;;;;;;2.97;2.08;;;12.90;99.10;;;;;;4999516;28;20060;-69
2023/08/29 03:00:37;;;;;;;3.80;2.50;;;12.90;99.20;;;;;;5032471;28;20399;-68
2023/08/29 03:03:04;;;;;;;2.95;2.53;;;12.80;99.20;;;;;;4999774;28;20048;-69
2023/08/29 03:05:31;;;;;;;5.40;2.50;;;12.80;99.30;;;;;;5032414;28;20121;-68
2023/08/29 03:07:57;;;;;;;4.82;2.72;;;12.80;99.40;;;;;;5016916;28;20083;-69
2023/08/29 03:10:23;;;;;;;4.13;2.50;;;12.80;99.40;;;;;;5032948;28;20674;-68
2023/08/29 03:12:52;;;;;;;3.35;2.47;;;12.80;99.50;;;;;;5030681;28;20051;-68
2023/08/29 03:15:22;;;;;;;4.47;2.55;;;12.70;99.60;;;;;;5046061;28;20432;-67
2023/08/29 03:17:48;;;;;;;4.10;2.38;;;12.70;99.60;;;;;;5033127;28;20130;-68
2023/08/29 03:20:15;;;;;;;3.30;2.60;;;12.70;99.60;;;;;;4998275;28;20051;-68
2023/08/29 03:22:44;;;;;;;3.42;2.28;;;12.70;99.70;;;;;;5049263;28;20083;-69
2023/08/29 03:25:10;;;;;;;3.97;2.80;;;12.70;99.70;;;;;;5012514;28;20449;-69
2023/08/29 03:27:51;;;;;;;3.67;2.40;;;12.60;99.70;;;;;;5050240;28;20071;-68
2023/08/29 03:30:17;;;;;;;4.75;2.40;;;12.60;99.70;;;;;;4999043;28;20047;-69
2023/08/29 03:32:43;;;;;;;4.53;2.40;;;13.40;99.90;;;;;;5015089;28;20094;-68
2023/08/29 03:35:09;;;;;;;3.20;2.28;;;12.60;99.80;;;;;;5017687;28;20044;-67
2023/08/29 03:37:34;;;;;;;4.47;2.38;;;12.60;99.80;;;;;;5012551;28;20054;-70
2023/08/29 03:40:00;;;;;;;3.70;2.25;;;12.60;99.90;;;;;;5029643;28;20047;-68
2023/08/29 03:42:26;;;;;;;3.85;2.50;;;12.60;99.90;;;;;;5029347;28;20419;-67
2023/08/29 03:44:59;;;;;;;3.15;2.28;;;12.60;99.90;;;;;;5012102;28;20048;-69
2023/08/29 03:47:25;;;;;;;4.85;2.20;;;12.60;99.90;;;;;;5030836;28;20079;-68
2023/08/29 03:49:56;;;;;;;4.68;2.60;;;12.60;99.90;;;;;;5013047;28;20119;-69
2023/08/29 03:52:27;;;;;;;3.95;2.72;;;12.60;99.90;;;;;;5020086;28;20436;-69
2023/08/29 03:54:56;;;;;;;4.03;2.30;;;12.60;99.90;;;;;;5031932;28;20615;-74
2023/08/29 03:57:28;;;;;;;4.25;2.97;;;12.60;99.90;;;;;;5016846;28;20118;-71
2023/08/29 03:59:54;;;;;;;4.45;2.20;;;12.60;99.90;;;;;;5031923;28;20075;-71
2023/08/29 04:02:31;;;;;;;3.97;2.53;;;12.60;99.90;;;;;;5000343;28;20079;-70
2023/08/29 04:05:14;;;;;;;4.15;2.47;;;12.60;99.90;;;;;;5047838;28;20092;-74
2023/08/29 04:07:42;;;;;;;4.63;2.90;;;12.60;99.90;;;;;;5017077;28;20033;-70
2023/08/29 04:10:12;;;;;;;2.97;2.28;;;12.70;99.90;;;;;;5033403;28;20083;-74
2023/08/29 04:12:38;;;;;;;10.93;3.42;;;12.70;99.90;;;;;;5031922;28;20044;-74
2023/08/29 04:15:15;;;;;;;5.45;2.90;;;12.70;99.90;;;;;;5002846;28;20054;-73
2023/08/29 04:17:44;;;;;;;4.25;2.83;;;12.70;99.90;;;;;;4986856;28;20062;-74
2023/08/29 04:20:13;;;;;;;7.25;2.78;;;12.80;99.90;;;;;;4988296;28;20056;-69
2023/08/29 04:22:39;;;;;;;3.30;2.60;;;12.80;99.90;;;;;;4992957;28;20401;-72
2023/08/29 04:25:07;;;;;;;4.15;2.88;;;12.80;99.90;;;;;;5008780;28;20060;-69
2023/08/29 04:27:38;;;;;;;4.22;3.20;;;12.90;99.90;;;;;;4991875;28;20050;-73
2023/08/29 04:30:04;;;;;;;3.50;2.58;;;12.90;99.90;;;;;;5008707;28;20065;-71
2023/08/29 04:32:34;;;;;;;4.65;2.80;;;13.00;99.90;;;;;;4979452;28;20057;-70
2023/08/29 04:35:06;;;;;;;4.03;3.15;;;13.00;99.90;;;;;;5006484;28;20164;-70
2023/08/29 04:37:36;;;;;;;7.57;2.70;;;13.10;99.90;;;;;;5008467;28;20624;-69
2023/08/29 04:40:06;;;;;;;6.85;3.08;;;13.10;99.90;;;;;;5004227;28;20484;-69
2023/08/29 04:42:33;;;;;;;4.78;2.70;;;13.20;99.90;;;;;;5006703;28;20048;-70
2023/08/29 04:45:04;;;;;;;4.25;2.50;;;13.20;99.90;;;;;;4979368;28;20459;-71
2023/08/29 04:47:38;;;;;;;3.38;2.90;;;13.20;99.90;;;;;;5034558;28;20126;-69
2023/08/29 04:50:09;;;;;;;4.20;2.80;;;13.30;99.90;;;;;;5034349;28;20422;-70
2023/08/29 04:52:36;;;;;;;3.40;2.38;;;13.40;99.90;;;;;;5001967;28;20059;-71
2023/08/29 04:55:04;;;;;;;3.40;2.60;;;13.40;99.90;;;;;;5013620;28;20062;-71
2023/08/29 04:57:32;;;;;;;3.85;2.42;;;13.50;99.90;;;;;;5047168;28;20082;-69
2023/08/29 04:59:57;;;;;;;2.42;1.70;;;13.50;99.90;;;;;;5010668;28;20055;-70
2023/08/29 05:02:23;;;;;;;4.28;1.70;;;13.60;99.90;;;;;;5014162;28;20055;-70
2023/08/29 05:04:49;;;;;;;3.10;1.70;;;13.60;99.90;;;;;;5035919;28;20099;-72
2023/08/29 05:07:20;;;;;;;3.78;1.38;;;13.70;99.90;;;;;;5013693;28;20052;-70
2023/08/29 05:09:46;;;;;;;1.63;1.15;;;13.80;99.90;;;;;;5031532;28;20045;-69
2023/08/29 05:12:23;;;;;;;1.90;1.10;;;13.80;99.90;;;;;;5029791;28;20052;-71
2023/08/29 05:14:55;;;;;;;4.35;1.50;;;13.90;99.90;;;;;;5037941;28;20044;-72
2023/08/29 05:17:21;;;;;;;3.88;1.40;;;13.90;99.90;;;;;;5034805;28;20068;-71
2023/08/29 05:19:47;;;;;;;4.03;1.63;;;14.00;99.90;;;;;;5048198;28;20052;-70
2023/08/29 05:22:18;;;;;;;2.88;1.30;;;14.00;99.90;;;;;;5037252;28;20043;-71
2023/08/29 05:24:45;;;;;;;3.35;1.58;;;14.00;99.90;;;;;;5016343;28;20043;-71
2023/08/29 05:27:15;;;;;;;3.03;1.70;;;14.10;99.90;;;;;;5014704;28;20115;-70
2023/08/29 05:29:41;;;;;;;3.63;1.90;;;14.20;99.90;;;;;;5014189;28;20140;-72
2023/08/29 05:32:19;;;;;;;3.50;1.67;;;14.20;99.90;;;;;;5030059;28;20037;-70
2023/08/29 05:34:44;;;;;;;3.03;1.50;;;14.20;99.90;;;;;;5013548;28;20153;-72
2023/08/29 05:37:10;;;;;;;2.13;1.50;;;14.30;99.90;;;;;;5048269;28;20061;-70
2023/08/29 05:39:42;;;;;;;2.75;1.70;;;14.30;99.90;;;;;;5015779;28;20724;-70
2023/08/29 05:42:18;;;;;;;4.40;1.77;;;14.30;99.90;;;;;;5016020;28;20509;-71
2023/08/29 05:44:47;;;;;;;3.60;2.00;;;14.40;99.90;;;;;;5011860;28;20060;-70
2023/08/29 05:47:14;;;;;;;5.13;1.88;;;14.40;99.90;;;;;;5010730;28;20044;-71
2023/08/29 05:49:46;;;;;;;2.90;1.50;;;14.40;99.90;;;;;;5016162;28;20084;-72
2023/08/29 05:52:20;;;;;;;2.83;1.60;;;14.40;99.90;;;;;;5027802;28;20052;-70
2023/08/29 05:54:52;;;;;;;4.13;1.80;;;14.50;99.90;;;;;;5028345;28;20041;-71
2023/08/29 05:57:20;;;;;;;3.63;1.77;;;14.40;99.90;;;;;;5011022;28;20068;-71
2023/08/29 05:59:53;;;;;;;3.42;1.42;;;14.50;99.90;;;;;;5030435;28;20059;-71
2023/08/29 06:02:21;;;;;;;2.63;1.70;;;14.50;99.90;;;;;;4994954;28;20071;-73
2023/08/29 06:04:48;;;;;;;3.75;1.63;;;14.50;99.90;;;;;;4982327;28;20422;-71
2023/08/29 06:07:13;;;;;;;3.97;1.60;;;14.50;99.90;;;;;;4968664;28;20068;-70
2023/08/29 06:09:40;;;;;;;3.58;1.98;;;14.50;99.90;;;;;;4950740;28;20054;-71
2023/08/29 06:12:12;;;;;;;2.88;1.70;;;14.60;99.90;;;;;;4982669;28;20045;-70
2023/08/29 06:14:53;;;;;;;3.03;1.70;;;14.00;99.90;;;;;;4939930;28;20046;-73
2023/08/29 06:17:19;;;;;;;3.58;2.03;;;14.60;99.90;;;;;;4969309;28;20436;-73
2023/08/29 06:19:47;;;;;;;3.25;2.03;;;14.60;99.90;;;;;;4945969;28;20402;-72
2023/08/29 06:22:14;;;;;;;5.45;2.28;;;14.60;99.90;;;;;;4959488;28;20299;-71
2023/08/29 06:24:41;;;;;;;3.08;2.30;;;14.60;99.90;;;;;;4990944;28;20058;-70
2023/08/29 06:27:06;;;;;;;3.55;2.65;;;14.80;99.90;;;;;;4988293;28;20050;-74
2023/08/29 06:29:35;;;;;;;4.00;2.38;;;14.70;99.90;;;;;;4974991;28;20176;-73
2023/08/29 06:32:01;;;;;;;4.50;2.38;;;14.70;99.90;;;;;;4989175;28;20042;-72
2023/08/29 06:34:27;;;;;;;5.25;2.58;;;14.70;99.90;;;;;;4957735;28;20167;-71
2023/08/29 06:36:53;;;;;;;3.35;2.47;;;14.80;99.90;;;;;;4997240;28;20056;-71
2023/08/29 06:39:20;;;;;;;3.33;2.33;;;14.80;99.90;;;;;;4984583;28;20114;-73
2023/08/29 06:41:48;;;;;;;4.53;2.35;;;14.80;99.90;;;;;;5004405;28;20041;-70
2023/08/29 06:44:19;;;;;;;4.80;2.78;;;14.80;99.90;;;;;;5038772;28;20587;-72
2023/08/29 06:46:48;;;;;;;5.40;2.38;;;14.90;99.90;;;;;;5017423;28;20049;-71
2023/08/29 06:49:15;;;;;;;3.67;2.30;;;14.90;99.90;;;;;;5026772;28;20033;-71
2023/08/29 06:51:41;;;;;;;3.90;2.83;;;15.00;99.90;;;;;;4995326;28;20628;-72
2023/08/29 06:54:07;;;;;;;3.20;2.70;;;15.00;99.90;;;;;;5030802;28;20438;-73
2023/08/29 06:56:33;;;;;;;3.40;2.35;;;15.10;99.90;;;;;;5016879;28;20134;-72
2023/08/29 06:59:00;;;;;;;4.97;2.40;;;15.10;99.90;;;;;;5018041;28;20052;-72
2023/08/29 07:01:26;;;;;;;5.55;2.35;;;15.20;99.90;;;;;;5029416;28;20052;-71
2023/08/29 07:03:52;;;;;;;3.33;2.10;;;15.30;99.90;;;;;;5031405;28;20395;-74
2023/08/29 07:06:19;;;;;;;3.13;2.30;;;15.30;99.90;;;;;;5013751;28;20045;-74
2023/08/29 07:08:44;;;;;;;3.95;2.13;;;15.40;99.90;;;;;;5001635;28;20081;-71
2023/08/29 07:11:15;;;;;;;3.33;2.28;;;15.50;99.90;;;;;;5050252;28;20364;-71
2023/08/29 07:13:45;;;;;;;3.65;2.47;;;15.60;99.90;;;;;;5016333;28;20049;-71
2023/08/29 07:16:13;;;;;;;4.90;2.50;;;15.70;99.90;;;;;;5049784;28;20037;-74
2023/08/29 07:18:39;;;;;;;4.03;2.40;;;15.90;99.90;;;;;;5036034;28;20059;-73
2023/08/29 07:21:06;;;;;;;4.60;2.40;;;16.00;99.90;;;;;;5049953;28;20043;-71
2023/08/29 07:23:31;;;;;;;2.80;2.00;;;16.10;99.90;;;;;;5018499;28;20045;-72
2023/08/29 07:25:58;;;;;;;3.75;2.55;;;16.20;99.90;;;;;;5029799;28;20500;-74
2023/08/29 07:28:23;;;;;;;6.60;2.70;;;16.20;99.90;;;;;;5034276;28;20513;-72
2023/08/29 07:30:51;;;;;;;3.22;2.30;;;16.30;99.90;;;;;;5031081;28;20440;-76
2023/08/29 07:33:20;;;;;;;3.72;2.00;;;16.40;99.90;;;;;;5046908;28;20129;-71
2023/08/29 07:35:55;;;;;;;2.13;1.40;;;16.40;99.90;;;;;;4998174;28;20053;-72
2023/08/29 07:38:42;;;;;;;1.70;0.98;;;16.40;99.90;;;;;;5014022;28;20541;-71
2023/08/29 07:41:15;;;;;;;1.40;0.88;;;16.40;99.90;;;;;;5046687;28;20063;-74
2023/08/29 07:43:53;;;;;;;1.60;0.98;;;16.50;99.90;;;;;;5053940;28;20453;-72
2023/08/29 07:46:19;;;;;;;1.67;1.08;;;16.50;99.90;;;;;;5052155;28;20044;-73
2023/08/29 07:48:53;;;;;;;2.30;1.00;;;16.50;99.90;;;;;;5048661;28;20455;-72
2023/08/29 07:51:22;;;;;;;2.35;1.55;;;16.60;99.90;;;;;;5055486;28;20442;-72
2023/08/29 07:53:58;;;;;;;1.80;1.00;;;16.70;99.90;;;;;;4991316;28;20057;-72
2023/08/29 07:56:29;;;;;;;1.75;1.10;;;16.80;99.90;;;;;;5050226;28;20049;-72
2023/08/29 07:59:03;;;;;;;1.92;1.08;;;16.80;99.70;;;;;;5029912;28;20079;-71
2023/08/29 08:01:33;;;;;;;3.08;1.35;;;16.90;99.50;;;;;;5050630;28;20052;-73
2023/08/29 08:04:05;;;;;;;1.23;0.90;;;17.00;99.20;;;;;;5016035;28;20139;-72
2023/08/29 08:06:31;;;;;;;2.15;1.05;;;17.00;98.80;;;;;;4995887;28;20488;-72
2023/08/29 08:08:56;;;;;;;1.48;0.90;;;17.10;98.50;;;;;;4998553;28;20119;-82
2023/08/29 08:11:25;;;;;;;1.80;0.90;;;17.20;98.20;;;;;;5020168;28;20134;-83
2023/08/29 08:13:51;;;;;;;2.08;1.20;;;17.30;97.70;;;;;;5020697;28;20040;-83
2023/08/29 08:16:17;;;;;;;1.70;0.90;;;17.40;97.20;;;;;;5035369;28;20067;-83
2023/08/29 08:18:42;;;;;;;1.63;0.90;;;17.50;96.90;;;;;;5032926;28;21249;-83
2023/08/29 08:21:08;;;;;;;2.58;1.05;;;17.60;96.50;;;;;;5031829;28;20701;-83
2023/08/29 08:23:34;;;;;;;3.05;1.10;;;17.70;96.10;;;;;;5017088;28;20046;-81
2023/08/29 08:26:00;;;;;;;1.92;1.00;;;17.90;95.40;;;;;;5041072;28;20076;-84
2023/08/29 08:28:25;;;;;;;2.10;1.00;;;18.10;94.80;;;;;;5025549;28;20056;-82
2023/08/29 08:30:51;;;;;;;1.83;1.00;;;18.30;93.90;;;;;;5029025;28;20426;-81
2023/08/29 08:33:17;;;;;;;2.13;0.90;;;18.50;92.80;;;;;;5032369;28;20437;-84
2023/08/29 08:35:43;;;;;;;1.70;0.90;;;18.70;91.60;;;;;;5030343;28;20063;-82
2023/08/29 08:38:09;;;;;;;2.55;1.30;;;19.00;90.50;;;;;;5029177;28;20068;-79
2023/08/29 08:40:41;;;;;;;2.05;0.85;;;19.20;88.80;;;;;;5025693;28;20052;-80
2023/08/29 08:43:09;;;;;;;1.95;1.00;;;19.40;85.90;;;;;;5029948;28;20044;-80
2023/08/29 08:45:39;;;;;;;0.70;0.60;;;19.50;83.70;;;;;;5044026;28;20320;-78
2023/08/29 08:48:05;;;;;;;2.35;1.00;;;19.50;81.70;;;;;;5010897;28;20499;-79
2023/08/29 08:50:32;;;;;;;1.10;0.70;;;19.60;81.30;;;;;;5010656;28;20183;-79
2023/08/29 08:53:00;;;;;;;0.93;0.70;;;19.80;80.20;;;;;;5028190;28;20055;-79
2023/08/29 08:55:26;;;;;;;1.30;0.90;;;19.80;77.20;;;;;;5028060;28;20510;-79
2023/08/29 08:57:52;;;;;;;1.23;0.88;;;20.10;74.60;;;;;;5028469;28;20053;-79
2023/08/29 09:00:22;;;;;;;1.33;0.98;;;20.20;70.60;;;;;;5028462;28;20507;-78
2023/08/29 09:02:49;;;;;;;1.30;0.70;;;20.30;66.50;;;;;;5022768;28;20044;-79
2023/08/29 09:05:15;;;;;;;2.03;0.70;;;20.40;65.80;;;;;;5028431;28;20056;-79
2023/08/29 09:07:41;;;;;;;1.77;0.80;;;20.40;63.20;;;;;;5037741;28;20041;-78
2023/08/29 09:10:11;;;;;;;1.52;0.70;;;20.60;63.80;;;;;;5058539;28;20434;-80
2023/08/29 09:12:50;;;;;;;1.50;0.85;;;20.70;60.50;;;;;;5056718;28;20052;-78
2023/08/29 09:15:19;;;;;;;3.78;0.85;;;20.70;52.80;;;;;;5025025;28;20506;-80
2023/08/29 09:17:50;;;;;;;2.15;1.00;;;20.70;57.30;;;;;;5020523;28;20274;-78
2023/08/29 09:20:17;;;;;;;2.75;0.90;;;20.80;56.80;;;;;;5017736;28;20040;-79
2023/08/29 09:22:44;;;;;;;3.38;0.90;;;21.00;56.40;;;;;;5039820;28;20068;-79
2023/08/29 09:25:11;;;;;;;1.60;0.70;;;21.20;55.80;;;;;;5033351;28;20064;-80
2023/08/29 09:27:48;;;;;;;1.52;0.80;;;21.20;52.90;;;;;;5033919;28;20048;-79
2023/08/29 09:30:18;;;;;;;2.00;0.95;;;21.30;51.40;;;;;;5036060;28;20062;-80
2023/08/29 09:32:45;;;;;;;0.75;0.60;;;21.40;52.90;;;;;;5019695;28;20058;-79
2023/08/29 09:35:16;;;;;;;2.35;1.00;;;21.60;51.10;;;;;;5040187;28;21093;-78
2023/08/29 09:37:50;;;;;;;1.52;0.80;;;21.70;48.50;;;;;;5039109;28;20052;-78
2023/08/29 09:40:19;;;;;;;2.17;0.70;;;22.10;45.40;;;;;;5018770;28;20052;-78
2023/08/29 09:42:55;;;;;;;1.20;0.70;;;22.20;41.30;;;;;;5036013;28;20062;-78
2023/08/29 09:45:21;;;;;;;0.70;0.60;;;22.20;32.20;;;;;;5038951;28;20135;-78
2023/08/29 09:47:50;;;;;;;1.80;0.82;;;22.40;36.70;;;;;;5034676;28;20051;-79
2023/08/29 09:50:16;;;;;;;1.40;0.60;;;22.70;32.20;;;;;;5037392;28;21412;-78
2023/08/29 09:52:42;;;;;;;2.65;0.82;;;22.80;26.20;;;;;;5030939;28;20056;-80
2023/08/29 09:55:11;;;;;;;1.55;0.73;;;22.80;22.00;;;;;;5029118;28;20048;-79
2023/08/29 09:57:38;;;;;;;1.17;0.70;;;22.90;19.50;;;;;;5046663;28;20052;-80
2023/08/29 10:00:08;;;;;;;1.63;0.65;;;23.00;14.40;;;;;;5047891;28;20079;-79
2023/08/29 10:02:34;;;;;;;1.58;0.70;;;22.60;1.90;;;;;;5030983;28;20052;-79
2023/08/29 10:05:08;;;;;;;2.67;0.80;;;22.60;1.70;;;;;;5015518;28;20431;-80
2023/08/29 10:07:42;;;;;;;1.25;0.70;;;23.10;1.30;;;;;;5033476;28;20120;-77
2023/08/29 10:10:10;;;;;;;1.13;0.70;;;23.00;1.00;;;;;;5011118;28;20433;-79
2023/08/29 10:12:36;;;;;;;1.55;0.88;;;23.10;1.00;;;;;;5012225;28;20048;-78
2023/08/29 10:15:04;;;;;;;1.60;0.68;;;23.30;1.00;;;;;;5043372;28;20055;-78
2023/08/29 10:17:34;;;;;;;1.60;0.80;;;23.50;1.00;;;;;;5029517;28;20052;-79
2023/08/29 10:20:04;;;;;;;1.33;0.80;;;23.90;1.00;;;;;;5011104;28;20049;-79
2023/08/29 10:22:30;;;;;;;1.85;0.90;;;23.90;1.00;;;;;;5024183;28;21514;-79
2023/08/29 10:24:59;;;;;;;1.63;0.90;;;23.90;1.00;;;;;;5032854;28;20120;-79
2023/08/29 10:27:24;;;;;;;2.22;1.00;;;23.90;1.00;;;;;;5044496;28;20127;-80
2023/08/29 10:29:50;;;;;;;3.63;1.00;;;23.70;1.00;;;;;;5037038;28;20624;-79
2023/08/29 10:32:16;;;;;;;1.55;0.75;;;23.60;1.00;;;;;;5038545;28;20097;-80
2023/08/29 10:34:42;;;;;;;1.63;0.70;;;23.70;1.00;;;;;;5033453;28;20333;-77
2023/08/29 10:37:20;;;;;;;1.30;0.80;;;23.60;1.00;;;;;;5023592;28;20396;-78
2023/08/29 10:39:47;;;;;;;1.42;0.73;;;23.70;1.00;;;;;;5030084;28;20524;-78
2023/08/29 10:42:16;;;;;;;4.75;1.15;;;23.80;1.00;;;;;;5043629;28;20058;-77
2023/08/29 10:44:44;;;;;;;1.63;0.93;;;23.90;1.00;;;;;;5031796;28;20137;-77
2023/08/29 10:47:31;;;;;;;0.95;0.68;;;24.00;1.00;;;;;;5012548;28;20047;-78
2023/08/29 10:50:02;;;;;;;1.52;0.80;;;24.10;1.00;;;;;;5028873;28;20092;-78
2023/08/29 10:52:40;;;;;;;1.67;1.00;;;24.20;1.00;;;;;;5014517;28;20056;-77
2023/08/29 10:55:20;;;;;;;2.28;0.77;;;24.20;1.00;;;;;;5030458;28;20052;-79
2023/08/29 10:57:46;;;;;;;2.38;0.80;;;24.00;1.00;;;;;;5046601;28;20123;-79
2023/08/29 11:00:33;;;;;;;2.63;0.70;;;23.90;1.00;;;;;;5030256;28;20066;-78
2023/08/29 11:03:00;;;;;;;1.35;0.70;;;24.00;1.00;;;;;;5028336;28;20488;-78
2023/08/29 11:05:27;;;;;;;1.42;0.70;;;23.90;1.00;;;;;;5001777;28;20056;-77
2023/08/29 11:08:13;;;;;;;1.52;0.82;;;23.90;1.00;;;;;;5027651;28;20233;-77
2023/08/29 11:10:39;;;;;;;;;;;23.70;1.00;;;;;;5032873;28;20458;-78
2023/08/29 11:13:09;;;;;;;2.22;0.90;;;23.70;1.00;;;;;;5027298;28;19921;-78
2023/08/29 11:16:05;;;;;;;1.25;0.75;;;23.60;1.00;;;;;;5028406;28;20043;-77
2023/08/29 11:18:34;;;;;;;1.88;0.90;;;23.70;1.00;;;;;;5018237;28;20096;-78
2023/08/29 11:21:10;;;;;;;1.27;0.80;;;23.90;1.00;;;;;;5048016;28;20095;-77
2023/08/29 11:23:41;;;;;;;2.30;0.90;;;23.80;1.00;;;;;;5043008;28;20395;-78
2023/08/29 11:26:08;;;;;;;1.33;0.75;;;24.00;1.00;;;;;;5029606;28;20076;-78
2023/08/29 11:28:42;;;;;;;2.63;0.80;;;24.30;1.00;;;;;;5015035;28;20057;-77
2023/08/29 11:31:08;;;;;;;1.98;0.90;;;24.60;1.00;;;;;;5030104;28;20491;-78
2023/08/29 11:33:36;;;;;;;3.60;1.00;;;24.70;1.00;;;;;;5045778;28;20083;-79
2023/08/29 11:36:04;;;;;;;1.50;0.80;;;24.80;1.00;;;;;;5030362;28;20060;-78
2023/08/29 11:38:31;;;;;;;1.90;0.90;;;24.80;1.00;;;;;;5030948;28;20041;-78
2023/08/29 11:40:58;;;;;;;3.13;0.93;;;24.90;1.00;;;;;;5019301;28;20040;-80
2023/08/29 11:43:24;;;;;;;2.05;0.90;;;25.10;1.00;;;;;;5022958;28;20129;-77
2023/08/29 11:46:01;;;;;;;2.88;1.25;;;25.40;1.00;;;;;;5034358;28;20447;-78
2023/08/29 11:48:29;;;;;;;1.83;0.82;;;25.40;1.00;;;;;;5047064;28;20131;-80
2023/08/29 11:51:05;;;;;;;2.72;1.20;;;25.50;1.00;;;;;;5033884;28;20051;-79
2023/08/29 11:53:36;;;;;;;2.80;0.88;;;25.70;1.00;;;;;;5028978;28;20488;-79
2023/08/29 11:56:04;;;;;;;2.10;0.82;;;25.90;99.90;;;;;;5026250;28;20567;-78
2023/08/29 11:58:32;;;;;;;1.60;0.90;;;26.10;99.90;;;;;;5009646;28;20049;-78
2023/08/29 12:01:00;;;;;;;2.50;1.17;;;26.30;99.90;;;;;;5033647;28;20067;-78
2023/08/29 12:03:28;;;;;;;3.05;0.80;;;26.20;99.90;;;;;;5033444;28;20499;-78
2023/08/29 12:05:57;;;;;;;2.33;0.98;;;26.20;99.90;;;;;;5034329;28;20078;-78
2023/08/29 12:08:52;;;;;;;2.03;0.98;;;26.10;99.90;;;;;;5022721;28;20095;-78
2023/08/29 12:11:18;;;;;;;1.45;0.93;;;26.30;99.90;;;;;;5024566;28;20060;-78
2023/08/29 12:14:00;;;;;;;3.40;0.90;;;26.40;99.90;;;;;;5024440;28;20062;-78
2023/08/29 12:16:26;;;;;;;1.85;0.80;;;26.20;1.00;;;;;;5039183;28;20097;-78
2023/08/29 12:19:05;;;;;;;2.85;1.00;;;26.00;99.90;;;;;;5040161;28;20048;-78
2023/08/29 12:21:31;;;;;;;1.38;0.90;;;25.70;99.90;;;;;;5021189;28;20555;-78
2023/08/29 12:24:11;;;;;;;2.22;0.98;;;25.60;99.90;;;;;;5038784;28;20121;-78
2023/08/29 12:26:37;;;;;;;1.80;1.00;;;25.80;99.90;;;;;;5044117;28;20134;-78
2023/08/29 12:29:03;;;;;;;1.92;0.90;;;26.00;99.90;;;;;;5039342;28;20136;-78
2023/08/29 12:31:29;;;;;;;2.00;0.80;;;26.00;99.90;;;;;;5007867;28;20131;-78
2023/08/29 12:33:55;;;;;;;2.17;1.00;;;25.90;99.90;;;;;;5038266;28;20136;-78
2023/08/29 12:36:20;;;;;;;3.13;1.00;;;25.60;99.90;;;;;;5023221;28;20134;-78
2023/08/29 12:38:46;;;;;;;4.15;1.00;;;25.40;99.90;;;;;;5056005;28;20045;-77
2023/08/29 12:41:16;;;;;;;2.50;0.90;;;25.20;99.90;;;;;;5037585;28;20049;-78
2023/08/29 12:43:42;;;;;;;4.28;0.90;;;25.30;99.90;;;;;;5041622;28;20068;-77
2023/08/29 12:46:09;;;;;;;3.17;0.90;;;25.10;99.90;;;;;;5042290;28;20063;-78
2023/08/29 12:48:35;;;;;;;1.73;0.82;;;25.30;99.90;;;;;;5042315;28;20053;-77
2023/08/29 12:51:02;;;;;;;2.67;1.10;;;25.60;99.90;;;;;;5041347;28;20087;-78
2023/08/29 12:53:28;;;;;;;2.15;1.10;;;25.80;99.90;;;;;;5006121;28;20498;-78
2023/08/29 12:55:54;;;;;;;2.55;1.00;;;25.80;1.00;;;;;;5041316;28;20055;-78